SAS165 ESSA-ESGG
Flight info
| Callsign | SAS165 |
|---|---|
| Flight time | 0h 41m |
| Altitude | 36000 |
| Route | ARS N623 BEDLA N866 LAPSI DCT MOXAM |
| Aircraft | A319/M-SDE3FGIJ1RWXY/LB1 |
Departure
| Time | 2026-05-07 15:18 |
|---|---|
| Airport | Stockholm-Arlanda Airport (ESSA) |
Arrival
| Time | 2026-05-07 15:59 |
|---|---|
| Airport | Göteborg Landvetter Airport (ESGG) |
| Time | Latitude | Longitude | Altitude | Speed | Heading |
|---|---|---|---|---|---|
| 2026-05-07 14:49 | 59.65242 | 17.92997 | 112 ft | 0 kts | 70° |
| 2026-05-07 15:09 | 59.65239 | 17.92983 | 112 ft | 4 kts | 70° |
| 2026-05-07 15:09 | 59.65230 | 17.92933 | 112 ft | 4 kts | 70° |
| 2026-05-07 15:10 | 59.65223 | 17.92894 | 111 ft | 4 kts | 70° |
| 2026-05-07 15:10 | 59.65216 | 17.92854 | 111 ft | 4 kts | 85° |
| 2026-05-07 15:10 | 59.65221 | 17.92808 | 110 ft | 2 kts | 109° |
| 2026-05-07 15:10 | 59.65229 | 17.92765 | 111 ft | 4 kts | 109° |
| 2026-05-07 15:11 | 59.65233 | 17.92741 | 110 ft | 0 kts | 109° |
| 2026-05-07 15:13 | 59.65231 | 17.92752 | 110 ft | 2 kts | 108° |
| 2026-05-07 15:14 | 59.65240 | 17.92796 | 110 ft | 5 kts | 42° |
| 2026-05-07 15:14 | 59.65282 | 17.92786 | 112 ft | 8 kts | 332° |
| 2026-05-07 15:14 | 59.65339 | 17.92725 | 112 ft | 11 kts | 333° |
| 2026-05-07 15:14 | 59.65411 | 17.92649 | 111 ft | 12 kts | 331° |
| 2026-05-07 15:15 | 59.65501 | 17.92552 | 106 ft | 11 kts | 332° |
| 2026-05-07 15:15 | 59.65589 | 17.92498 | 104 ft | 15 kts | 346° |
| 2026-05-07 15:15 | 59.65692 | 17.92447 | 104 ft | 12 kts | 346° |
| 2026-05-07 15:15 | 59.65756 | 17.92420 | 104 ft | 8 kts | 358° |
| 2026-05-07 15:16 | 59.65834 | 17.92446 | 106 ft | 14 kts | 11° |
| 2026-05-07 15:16 | 59.65902 | 17.92413 | 109 ft | 9 kts | 297° |
| 2026-05-07 15:16 | 59.65920 | 17.92259 | 111 ft | 14 kts | 279° |
| 2026-05-07 15:16 | 59.65919 | 17.92116 | 113 ft | 8 kts | 207° |
| 2026-05-07 15:17 | 59.65898 | 17.92107 | 115 ft | 0 kts | 185° |
| 2026-05-07 15:17 | 59.65816 | 17.92080 | 112 ft | 41 kts | 190° |
| 2026-05-07 15:17 | 59.65290 | 17.91889 | 106 ft | 109 kts | 190° |
| 2026-05-07 15:18 | 59.64411 | 17.91563 | 330 ft | 136 kts | 191° |
| 2026-05-07 15:18 | 59.63489 | 17.91205 | 955 ft | 134 kts | 191° |
| 2026-05-07 15:18 | 59.62561 | 17.90870 | 1533 ft | 137 kts | 188° |
| 2026-05-07 15:18 | 59.61607 | 17.90423 | 2019 ft | 151 kts | 202° |
| 2026-05-07 15:19 | 59.60852 | 17.88785 | 2314 ft | 177 kts | 241° |
| 2026-05-07 15:19 | 59.60231 | 17.86537 | 2666 ft | 201 kts | 239° |
| 2026-05-07 15:19 | 59.59463 | 17.84034 | 3210 ft | 220 kts | 239° |
| 2026-05-07 15:19 | 59.58652 | 17.81421 | 4183 ft | 224 kts | 242° |
| 2026-05-07 15:20 | 59.57872 | 17.78581 | 4850 ft | 247 kts | 244° |
| 2026-05-07 15:20 | 59.57077 | 17.75458 | 5709 ft | 259 kts | 248° |
| 2026-05-07 15:20 | 59.56727 | 17.71958 | 6711 ft | 264 kts | 271° |
| 2026-05-07 15:20 | 59.56811 | 17.68352 | 7763 ft | 266 kts | 273° |
| 2026-05-07 15:21 | 59.56900 | 17.64690 | 8833 ft | 268 kts | 273° |
| 2026-05-07 15:21 | 59.56983 | 17.60993 | 9923 ft | 271 kts | 273° |
| 2026-05-07 15:21 | 59.57066 | 17.57199 | 10560 ft | 287 kts | 273° |
| 2026-05-07 15:21 | 59.57152 | 17.53143 | 11154 ft | 300 kts | 273° |
| 2026-05-07 15:22 | 59.57236 | 17.48994 | 12045 ft | 304 kts | 273° |
| 2026-05-07 15:22 | 59.57293 | 17.46227 | 12644 ft | 306 kts | 273° |
| 2026-05-07 15:22 | 59.57376 | 17.42012 | 13536 ft | 309 kts | 273° |
| 2026-05-07 15:22 | 59.57457 | 17.37765 | 14354 ft | 312 kts | 273° |
| 2026-05-07 15:23 | 59.57538 | 17.33469 | 15146 ft | 314 kts | 273° |
| 2026-05-07 15:23 | 59.57616 | 17.29142 | 15936 ft | 316 kts | 273° |
| 2026-05-07 15:23 | 59.57693 | 17.24803 | 16723 ft | 318 kts | 272° |
| 2026-05-07 15:23 | 59.57768 | 17.20429 | 17504 ft | 320 kts | 272° |
| 2026-05-07 15:24 | 59.57843 | 17.16019 | 18303 ft | 323 kts | 272° |
| 2026-05-07 15:24 | 59.57915 | 17.11583 | 18977 ft | 325 kts | 272° |
| 2026-05-07 15:24 | 59.57989 | 17.07122 | 19675 ft | 327 kts | 272° |
| 2026-05-07 15:24 | 59.58063 | 17.02610 | 20352 ft | 329 kts | 272° |
| 2026-05-07 15:25 | 59.58137 | 16.98080 | 21021 ft | 331 kts | 272° |
| 2026-05-07 15:25 | 59.58209 | 16.93584 | 21677 ft | 334 kts | 272° |
| 2026-05-07 15:25 | 59.58284 | 16.88980 | 22327 ft | 336 kts | 272° |
| 2026-05-07 15:25 | 59.58358 | 16.84349 | 22975 ft | 338 kts | 272° |
| 2026-05-07 15:26 | 59.58427 | 16.79676 | 23621 ft | 341 kts | 272° |
| 2026-05-07 15:26 | 59.58491 | 16.74965 | 24141 ft | 344 kts | 272° |
| 2026-05-07 15:26 | 59.58556 | 16.70227 | 24668 ft | 346 kts | 272° |
| 2026-05-07 15:26 | 59.58651 | 16.65521 | 25155 ft | 348 kts | 276° |
| 2026-05-07 15:27 | 59.58918 | 16.60754 | 25656 ft | 351 kts | 271° |
| 2026-05-07 15:27 | 59.58425 | 16.56012 | 26123 ft | 361 kts | 249° |
| 2026-05-07 15:27 | 59.57123 | 16.51708 | 26608 ft | 368 kts | 242° |
| 2026-05-07 15:27 | 59.55752 | 16.47443 | 27101 ft | 370 kts | 243° |
| 2026-05-07 15:28 | 59.54407 | 16.43106 | 27569 ft | 372 kts | 244° |
| 2026-05-07 15:28 | 59.53069 | 16.38697 | 28038 ft | 375 kts | 244° |
| 2026-05-07 15:28 | 59.51734 | 16.34257 | 28510 ft | 377 kts | 244° |
| 2026-05-07 15:28 | 59.50403 | 16.29832 | 28984 ft | 380 kts | 244° |
| 2026-05-07 15:29 | 59.49041 | 16.25332 | 29437 ft | 383 kts | 244° |
| 2026-05-07 15:29 | 59.47666 | 16.20819 | 29894 ft | 386 kts | 244° |
| 2026-05-07 15:29 | 59.46274 | 16.16277 | 30068 ft | 385 kts | 244° |
| 2026-05-07 15:29 | 59.44909 | 16.11856 | 30075 ft | 369 kts | 244° |
| 2026-05-07 15:30 | 59.43599 | 16.07640 | 30084 ft | 355 kts | 244° |
| 2026-05-07 15:30 | 59.42338 | 16.03586 | 30084 ft | 348 kts | 244° |
| 2026-05-07 15:30 | 59.39828 | 15.95496 | 30079 ft | 345 kts | 244° |
| 2026-05-07 15:31 | 59.37334 | 15.87432 | 30077 ft | 345 kts | 244° |
| 2026-05-07 15:31 | 59.34849 | 15.79431 | 30076 ft | 345 kts | 244° |
| 2026-05-07 15:32 | 59.32336 | 15.71414 | 30076 ft | 345 kts | 244° |
| 2026-05-07 15:32 | 59.29820 | 15.63401 | 30078 ft | 345 kts | 244° |
| 2026-05-07 15:33 | 59.27313 | 15.55440 | 30084 ft | 345 kts | 244° |
| 2026-05-07 15:33 | 59.24792 | 15.47456 | 30033 ft | 344 kts | 244° |
| 2026-05-07 15:34 | 59.22268 | 15.39515 | 30043 ft | 346 kts | 244° |
| 2026-05-07 15:34 | 59.19723 | 15.31514 | 30055 ft | 347 kts | 244° |
| 2026-05-07 15:35 | 59.17167 | 15.23502 | 30059 ft | 347 kts | 244° |
| 2026-05-07 15:35 | 59.14620 | 15.15556 | 30069 ft | 348 kts | 243° |
| 2026-05-07 15:36 | 59.12048 | 15.07562 | 30077 ft | 348 kts | 243° |
| 2026-05-07 15:36 | 59.09477 | 14.99579 | 30066 ft | 348 kts | 243° |
| 2026-05-07 15:37 | 59.06906 | 14.91613 | 30076 ft | 348 kts | 243° |
| 2026-05-07 15:37 | 59.04044 | 14.84054 | 29560 ft | 352 kts | 236° |
| 2026-05-07 15:38 | 59.02440 | 14.80435 | 29063 ft | 353 kts | 234° |
| 2026-05-07 15:38 | 59.00817 | 14.76829 | 28796 ft | 360 kts | 234° |
| 2026-05-07 15:38 | 58.99123 | 14.73062 | 28517 ft | 380 kts | 234° |
| 2026-05-07 15:38 | 58.97337 | 14.69087 | 28242 ft | 400 kts | 234° |
| 2026-05-07 15:39 | 58.95474 | 14.64940 | 27971 ft | 412 kts | 233° |
| 2026-05-07 15:39 | 58.93607 | 14.60798 | 27704 ft | 414 kts | 233° |
| 2026-05-07 15:39 | 58.91705 | 14.56598 | 27437 ft | 414 kts | 233° |
| 2026-05-07 15:39 | 58.89801 | 14.52398 | 27179 ft | 413 kts | 233° |
| 2026-05-07 15:40 | 58.87915 | 14.48235 | 26915 ft | 411 kts | 233° |
| 2026-05-07 15:40 | 58.86034 | 14.44084 | 26655 ft | 409 kts | 233° |
| 2026-05-07 15:40 | 58.84153 | 14.39939 | 26398 ft | 408 kts | 233° |
| 2026-05-07 15:40 | 58.82298 | 14.35863 | 26146 ft | 407 kts | 233° |
| 2026-05-07 15:41 | 58.80433 | 14.31778 | 25866 ft | 405 kts | 233° |
| 2026-05-07 15:41 | 58.78569 | 14.27701 | 25619 ft | 405 kts | 232° |
| 2026-05-07 15:41 | 58.76707 | 14.23633 | 25375 ft | 404 kts | 232° |
| 2026-05-07 15:41 | 58.74850 | 14.19578 | 25129 ft | 403 kts | 232° |
| 2026-05-07 15:42 | 58.72988 | 14.15516 | 24886 ft | 402 kts | 232° |
| 2026-05-07 15:42 | 58.71140 | 14.11489 | 24643 ft | 401 kts | 232° |
| 2026-05-07 15:42 | 58.69314 | 14.07523 | 24407 ft | 399 kts | 232° |
| 2026-05-07 15:42 | 58.67474 | 14.03537 | 24168 ft | 398 kts | 232° |
| 2026-05-07 15:43 | 58.65637 | 13.99562 | 23933 ft | 397 kts | 232° |
| 2026-05-07 15:43 | 58.63806 | 13.95598 | 23698 ft | 395 kts | 232° |
| 2026-05-07 15:43 | 58.61980 | 13.91643 | 23418 ft | 394 kts | 232° |
| 2026-05-07 15:43 | 58.60166 | 13.87726 | 23143 ft | 392 kts | 232° |
| 2026-05-07 15:44 | 58.58372 | 13.83866 | 22859 ft | 391 kts | 232° |
| 2026-05-07 15:44 | 58.56559 | 13.79980 | 22569 ft | 390 kts | 231° |
| 2026-05-07 15:44 | 58.54747 | 13.76105 | 22305 ft | 390 kts | 231° |
| 2026-05-07 15:44 | 58.52940 | 13.72249 | 22027 ft | 388 kts | 231° |
| 2026-05-07 15:45 | 58.51140 | 13.68410 | 21763 ft | 387 kts | 231° |
| 2026-05-07 15:45 | 58.49344 | 13.64580 | 21501 ft | 386 kts | 231° |
| 2026-05-07 15:45 | 58.47549 | 13.60754 | 21199 ft | 384 kts | 231° |
| 2026-05-07 15:45 | 58.45766 | 13.56964 | 20668 ft | 381 kts | 231° |
| 2026-05-07 15:46 | 58.42258 | 13.49536 | 19646 ft | 376 kts | 231° |
| 2026-05-07 15:46 | 58.40511 | 13.45826 | 19151 ft | 373 kts | 231° |
| 2026-05-07 15:46 | 58.38781 | 13.42157 | 18637 ft | 371 kts | 231° |
| 2026-05-07 15:47 | 58.37054 | 13.38517 | 18096 ft | 368 kts | 230° |
| 2026-05-07 15:47 | 58.35354 | 13.34952 | 17568 ft | 366 kts | 230° |
| 2026-05-07 15:47 | 58.33648 | 13.31379 | 17027 ft | 363 kts | 230° |
| 2026-05-07 15:47 | 58.31952 | 13.27817 | 16491 ft | 362 kts | 230° |
| 2026-05-07 15:48 | 58.30257 | 13.24256 | 15945 ft | 360 kts | 230° |
| 2026-05-07 15:48 | 58.28578 | 13.20739 | 15389 ft | 357 kts | 230° |
| 2026-05-07 15:48 | 58.26907 | 13.17247 | 14830 ft | 355 kts | 230° |
| 2026-05-07 15:48 | 58.25268 | 13.13830 | 14269 ft | 353 kts | 230° |
| 2026-05-07 15:49 | 58.23617 | 13.10398 | 13684 ft | 350 kts | 229° |
| 2026-05-07 15:49 | 58.21978 | 13.06992 | 13102 ft | 348 kts | 229° |
| 2026-05-07 15:49 | 58.20370 | 13.03660 | 12548 ft | 346 kts | 229° |
| 2026-05-07 15:49 | 58.18729 | 13.00261 | 11969 ft | 343 kts | 229° |
| 2026-05-07 15:50 | 58.17142 | 12.96974 | 11426 ft | 341 kts | 229° |
| 2026-05-07 15:50 | 58.15549 | 12.93673 | 10870 ft | 338 kts | 229° |
| 2026-05-07 15:50 | 58.13967 | 12.90399 | 10722 ft | 337 kts | 229° |
| 2026-05-07 15:50 | 58.12386 | 12.87132 | 10640 ft | 337 kts | 229° |
| 2026-05-07 15:51 | 58.10819 | 12.83907 | 10513 ft | 325 kts | 229° |
| 2026-05-07 15:51 | 58.09317 | 12.80828 | 10144 ft | 313 kts | 229° |
| 2026-05-07 15:51 | 58.07851 | 12.77826 | 9510 ft | 309 kts | 229° |
| 2026-05-07 15:51 | 58.06403 | 12.74860 | 8857 ft | 305 kts | 229° |
| 2026-05-07 15:52 | 58.04960 | 12.71903 | 8328 ft | 304 kts | 228° |
| 2026-05-07 15:52 | 58.03532 | 12.68980 | 7820 ft | 302 kts | 228° |
| 2026-05-07 15:52 | 58.02113 | 12.66083 | 7157 ft | 300 kts | 227° |
| 2026-05-07 15:52 | 58.00690 | 12.63185 | 6628 ft | 301 kts | 227° |
| 2026-05-07 15:53 | 57.99293 | 12.60337 | 6133 ft | 299 kts | 227° |
| 2026-05-07 15:53 | 57.97874 | 12.57544 | 5910 ft | 288 kts | 221° |
| 2026-05-07 15:53 | 57.96248 | 12.55468 | 5577 ft | 278 kts | 207° |
| 2026-05-07 15:53 | 57.94519 | 12.53873 | 5098 ft | 275 kts | 206° |
| 2026-05-07 15:54 | 57.92815 | 12.52309 | 4598 ft | 274 kts | 206° |
| 2026-05-07 15:54 | 57.91175 | 12.50805 | 4443 ft | 260 kts | 207° |
| 2026-05-07 15:54 | 57.89585 | 12.49345 | 4300 ft | 247 kts | 206° |
| 2026-05-07 15:54 | 57.88059 | 12.47941 | 3987 ft | 242 kts | 207° |
| 2026-05-07 15:55 | 57.86551 | 12.46552 | 3593 ft | 241 kts | 208° |
| 2026-05-07 15:55 | 57.85062 | 12.45180 | 3266 ft | 241 kts | 208° |
| 2026-05-07 15:55 | 57.83555 | 12.43794 | 3013 ft | 238 kts | 208° |
| 2026-05-07 15:55 | 57.82083 | 12.42444 | 2885 ft | 232 kts | 208° |
| 2026-05-07 15:56 | 57.80659 | 12.41135 | 2753 ft | 223 kts | 207° |
| 2026-05-07 15:56 | 57.79297 | 12.39885 | 2622 ft | 212 kts | 209° |
| 2026-05-07 15:56 | 57.78023 | 12.38717 | 2538 ft | 198 kts | 209° |
| 2026-05-07 15:56 | 57.76803 | 12.37597 | 2467 ft | 193 kts | 208° |
| 2026-05-07 15:57 | 57.75610 | 12.36503 | 2300 ft | 189 kts | 208° |
| 2026-05-07 15:57 | 57.74474 | 12.35465 | 2068 ft | 174 kts | 210° |
| 2026-05-07 15:57 | 57.73425 | 12.34506 | 1840 ft | 161 kts | 210° |
| 2026-05-07 15:57 | 57.72470 | 12.33633 | 1631 ft | 150 kts | 210° |
| 2026-05-07 15:58 | 57.71540 | 12.32781 | 1433 ft | 147 kts | 212° |
| 2026-05-07 15:58 | 57.70637 | 12.31956 | 1226 ft | 143 kts | 212° |
| 2026-05-07 15:58 | 57.69750 | 12.31142 | 1030 ft | 141 kts | 213° |
| 2026-05-07 15:58 | 57.68883 | 12.30345 | 843 ft | 139 kts | 211° |
| 2026-05-07 15:59 | 57.68009 | 12.29568 | 648 ft | 138 kts | 211° |
| 2026-05-07 15:59 | 57.67162 | 12.28784 | 517 ft | 128 kts | 210° |
| 2026-05-07 15:59 | 57.66470 | 12.28150 | 511 ft | 87 kts | 205° |
| 2026-05-07 15:59 | 57.66072 | 12.27788 | 508 ft | 47 kts | 206° |
| 2026-05-07 16:00 | 57.65827 | 12.27663 | 505 ft | 23 kts | 182° |
| 2026-05-07 16:00 | 57.65724 | 12.27706 | 505 ft | 14 kts | 132° |
| 2026-05-07 16:00 | 57.65750 | 12.27841 | 505 ft | 13 kts | 27° |
| 2026-05-07 16:00 | 57.65838 | 12.27920 | 507 ft | 15 kts | 25° |
| 2026-05-07 16:01 | 57.65939 | 12.28011 | 508 ft | 17 kts | 26° |
| 2026-05-07 16:01 | 57.66055 | 12.28118 | 509 ft | 20 kts | 26° |
| 2026-05-07 16:01 | 57.66184 | 12.28235 | 510 ft | 22 kts | 25° |
| 2026-05-07 16:01 | 57.66329 | 12.28367 | 511 ft | 24 kts | 26° |
| 2026-05-07 16:02 | 57.66459 | 12.28486 | 512 ft | 17 kts | 26° |
| 2026-05-07 16:02 | 57.66574 | 12.28591 | 512 ft | 20 kts | 26° |
| 2026-05-07 16:02 | 57.66662 | 12.28671 | 512 ft | 14 kts | 26° |
| 2026-05-07 16:02 | 57.66756 | 12.28757 | 513 ft | 14 kts | 26° |
| 2026-05-07 16:03 | 57.66830 | 12.28836 | 513 ft | 9 kts | 52° |
| 2026-05-07 16:03 | 57.66822 | 12.28925 | 516 ft | 5 kts | 111° |
| 2026-05-07 16:03 | 57.66805 | 12.28986 | 516 ft | 6 kts | 117° |
| 2026-05-07 16:03 | 57.66783 | 12.29069 | 516 ft | 7 kts | 116° |
| 2026-05-07 16:04 | 57.66759 | 12.29150 | 516 ft | 7 kts | 120° |
| 2026-05-07 16:04 | 57.66739 | 12.29227 | 516 ft | 6 kts | 116° |
| 2026-05-07 16:04 | 57.66732 | 12.29253 | 516 ft | 2 kts | 117° |
| 2026-05-07 16:04 | 57.66727 | 12.29269 | 516 ft | 0 kts | 116° |